Time;durP1;ratioP1;P1;durP2;ratioP2;P2;SDS_P1;SDS_P2;PMS_P1;PMS_P2;Temp;Humidity;BMP_temperature;BMP_pressure;BME280_temperature;BME280_humidity;BME280_pressure;Samples;Min_cycle;Max_cycle;Signal;HPM_P1;HPM_P2
2023/06/20 00:01:30;;;;;;;5.90;4.50;;;;;;;;;;4976408;28;20038;-87
2023/06/20 00:03:55;;;;;;;6.38;4.57;;;;;;;;;;4973996;28;20047;-87
2023/06/20 00:06:22;;;;;;;5.88;4.80;;;;;;;;;;4968984;28;20063;-87
2023/06/20 00:08:48;;;;;;;7.18;4.82;;;;;;;;;;4967922;28;20047;-87
2023/06/20 00:11:13;;;;;;;6.15;4.70;;;;;;;;;;4970556;28;20086;-87
2023/06/20 00:13:42;;;;;;;6.78;4.90;;;;;;;;;;4971837;28;20039;-86
2023/06/20 00:16:09;;;;;;;5.45;4.70;;;;;;;;;;4975659;28;20041;-87
2023/06/20 00:18:34;;;;;;;8.35;4.68;;;;;;;;;;4979377;28;20038;-87
2023/06/20 00:21:00;;;;;;;6.28;4.65;;;;;;;;;;4980314;28;20039;-87
2023/06/20 00:23:29;;;;;;;6.82;4.57;;;;;;;;;;4984344;28;20396;-87
2023/06/20 00:25:56;;;;;;;6.10;4.53;;;;;;;;;;4982029;28;20043;-87
2023/06/20 00:28:21;;;;;;;5.55;4.72;;;;;;;;;;4982261;28;20042;-86
2023/06/20 00:30:47;;;;;;;7.10;4.60;;;;;;;;;;4971920;28;20031;-87
2023/06/20 00:33:13;;;;;;;6.53;4.60;;;;;;;;;;4976592;28;20042;-87
2023/06/20 00:35:38;;;;;;;7.72;4.90;;;;;;;;;;4979176;28;20481;-87
2023/06/20 00:38:04;;;;;;;5.97;4.70;;;;;;;;;;4970203;28;20078;-86
2023/06/20 00:40:32;;;;;;;6.50;5.00;;;;;;;;;;4982255;28;20401;-86
2023/06/20 00:42:58;;;;;;;6.50;4.82;;;;;;;;;;4983498;28;20067;-86
2023/06/20 00:45:32;;;;;;;7.18;4.65;;;;;;;;;;4985560;28;20042;-87
2023/06/20 00:47:59;;;;;;;6.65;4.82;;;;;;;;;;4973893;28;20031;-87
2023/06/20 00:50:27;;;;;;;7.18;4.80;;;;;;;;;;4992112;28;20030;-86
2023/06/20 00:53:05;;;;;;;5.78;4.50;;;;;;;;;;4980862;28;20039;-87
2023/06/20 00:55:32;;;;;;;6.45;4.65;;;;;;;;;;4983508;28;20033;-87
2023/06/20 00:57:59;;;;;;;6.90;4.82;;;;;;;;;;4976763;28;20090;-86
2023/06/20 01:00:27;;;;;;;7.50;4.65;;;;;;;;;;4974835;28;20031;-86
2023/06/20 01:03:01;;;;;;;5.72;4.68;;;;;;;;;;4971743;28;20103;-86
2023/06/20 01:05:28;;;;;;;5.72;4.57;;;;;;;;;;4973447;28;20506;-87
2023/06/20 01:08:17;;;;;;;7.18;4.47;;;;;;;;;;4978249;28;20043;-86
2023/06/20 01:11:02;;;;;;;6.40;4.57;;;;;;;;;;4992264;28;20049;-86
2023/06/20 01:13:42;;;;;;;7.85;5.03;;;;;;;;;;4966377;28;20031;-86
2023/06/20 01:16:17;;;;;;;5.65;4.72;;;;;;;;;;4979576;28;20031;-86
2023/06/20 01:18:55;;;;;;;6.20;4.85;;;;;;;;;;4975376;28;20045;-86
2023/06/20 01:21:30;;;;;;;8.98;4.50;;;;;;;;;;4977315;28;20037;-86
2023/06/20 01:24:07;;;;;;;7.68;4.68;;;;;;;;;;4993090;28;20144;-86
2023/06/20 01:26:48;;;;;;;6.95;5.00;;;;;;;;;;4975351;28;20066;-86
2023/06/20 01:29:25;;;;;;;6.10;4.82;;;;;;;;;;4972418;28;20027;-86
2023/06/20 01:31:56;;;;;;;7.22;5.00;;;;;;;;;;4974891;28;20033;-86
2023/06/20 01:34:27;;;;;;;5.82;4.72;;;;;;;;;;4979406;28;20027;-86
2023/06/20 01:37:01;;;;;;;8.13;5.15;;;;;;;;;;4961698;28;20031;-86
2023/06/20 01:39:39;;;;;;;6.60;4.53;;;;;;;;;;4967652;28;20063;-86
2023/06/20 01:42:05;;;;;;;6.45;4.80;;;;;;;;;;4977769;28;20050;-86
2023/06/20 01:44:33;;;;;;;5.80;4.57;;;;;;;;;;4976158;28;20027;-86
2023/06/20 01:47:02;;;;;;;7.97;5.05;;;;;;;;;;4976283;28;20150;-86
2023/06/20 01:49:28;;;;;;;6.82;4.75;;;;;;;;;;4974725;28;20054;-86
2023/06/20 01:51:56;;;;;;;6.53;4.90;;;;;;;;;;4974977;28;20481;-87
2023/06/20 01:54:28;;;;;;;6.25;4.78;;;;;;;;;;4970330;28;20038;-86
2023/06/20 01:56:57;;;;;;;6.40;4.80;;;;;;;;;;4974023;28;20134;-86
2023/06/20 01:59:25;;;;;;;6.15;4.68;;;;;;;;;;4967856;28;20042;-86
2023/06/20 02:01:52;;;;;;;6.03;4.88;;;;;;;;;;4977845;28;20057;-85
2023/06/20 02:04:17;;;;;;;5.85;4.90;;;;;;;;;;4967123;28;20086;-87
2023/06/20 02:06:45;;;;;;;5.55;4.90;;;;;;;;;;4971672;28;20043;-87
2023/06/20 02:09:13;;;;;;;6.78;4.97;;;;;;;;;;4994018;28;20045;-86
2023/06/20 02:11:39;;;;;;;7.10;4.60;;;;;;;;;;4983281;28;20107;-87
2023/06/20 02:14:06;;;;;;;6.18;4.72;;;;;;;;;;5000346;28;20493;-87
2023/06/20 02:16:36;;;;;;;5.97;4.65;;;;;;;;;;4968770;28;20026;-86
2023/06/20 02:19:07;;;;;;;7.82;5.25;;;;;;;;;;4964938;28;20031;-86
2023/06/20 02:21:37;;;;;;;6.93;5.00;;;;;;;;;;4970226;28;20042;-86
2023/06/20 02:24:05;;;;;;;6.03;4.80;;;;;;;;;;4971685;28;20038;-86
2023/06/20 02:26:34;;;;;;;5.95;4.65;;;;;;;;;;4978375;28;20015;-87
2023/06/20 02:29:04;;;;;;;6.50;4.70;;;;;;;;;;4977523;28;20057;-86
2023/06/20 02:31:33;;;;;;;6.05;5.03;;;;;;;;;;4977847;28;20474;-87
2023/06/20 02:34:02;;;;;;;6.43;4.97;;;;;;;;;;4975196;28;20588;-88
2023/06/20 02:36:29;;;;;;;6.97;5.20;;;;;;;;;;4986120;28;20494;-86
2023/06/20 02:38:56;;;;;;;8.82;5.15;;;;;;;;;;4993816;28;20039;-86
2023/06/20 02:41:23;;;;;;;7.55;4.80;;;;;;;;;;4977725;28;20031;-85
2023/06/20 02:43:49;;;;;;;7.05;5.20;;;;;;;;;;4963701;28;20062;-87
2023/06/20 02:46:30;;;;;;;5.93;5.07;;;;;;;;;;4975774;28;20032;-86
2023/06/20 02:48:55;;;;;;;8.35;5.15;;;;;;;;;;4974208;28;20066;-86
2023/06/20 02:51:30;;;;;;;7.25;5.00;;;;;;;;;;4979248;28;20022;-87
2023/06/20 02:54:16;;;;;;;8.00;5.20;;;;;;;;;;4977490;28;20046;-87
2023/06/20 02:56:46;;;;;;;6.55;5.00;;;;;;;;;;4979178;28;20047;-86
2023/06/20 02:59:13;;;;;;;6.88;5.10;;;;;;;;;;4989947;28;20035;-85
2023/06/20 03:01:45;;;;;;;7.65;5.28;;;;;;;;;;4971552;28;20027;-88
2023/06/20 03:04:13;;;;;;;11.18;5.43;;;;;;;;;;4952021;28;20308;-85
2023/06/20 03:06:42;;;;;;;9.95;5.47;;;;;;;;;;4964309;28;20035;-87
2023/06/20 03:09:09;;;;;;;7.05;5.13;;;;;;;;;;4978115;28;20034;-87
2023/06/20 03:11:35;;;;;;;6.68;5.28;;;;;;;;;;4975011;28;20022;-86
2023/06/20 03:14:03;;;;;;;7.80;5.25;;;;;;;;;;4988143;28;20034;-86
2023/06/20 03:16:30;;;;;;;6.63;4.82;;;;;;;;;;4966903;28;20381;-85
2023/06/20 03:18:56;;;;;;;5.28;4.78;;;;;;;;;;4977641;28;20038;-85
2023/06/20 03:21:25;;;;;;;8.15;5.20;;;;;;;;;;4981301;28;20046;-86
2023/06/20 03:23:52;;;;;;;9.57;5.30;;;;;;;;;;4978952;28;20023;-87
2023/06/20 03:26:17;;;;;;;6.35;5.30;;;;;;;;;;4986606;28;20041;-87
2023/06/20 03:28:43;;;;;;;7.07;5.15;;;;;;;;;;4978343;28;20019;-88
2023/06/20 03:31:08;;;;;;;6.45;4.85;;;;;;;;;;4978753;28;20034;-85
2023/06/20 03:33:34;;;;;;;6.57;5.30;;;;;;;;;;4967333;28;20901;-86
2023/06/20 03:36:00;;;;;;;7.32;5.35;;;;;;;;;;4968629;28;20027;-86
2023/06/20 03:38:26;;;;;;;5.60;4.97;;;;;;;;;;4970284;28;20065;-87
2023/06/20 03:40:52;;;;;;;7.38;5.75;;;;;;;;;;4966685;28;20031;-87
2023/06/20 03:43:18;;;;;;;9.27;5.65;;;;;;;;;;4962578;28;20042;-87
2023/06/20 03:45:43;;;;;;;7.50;5.80;;;;;;;;;;4977220;28;20027;-87
2023/06/20 03:48:09;;;;;;;10.27;5.80;;;;;;;;;;4964723;28;20038;-85
2023/06/20 03:50:36;;;;;;;7.65;5.63;;;;;;;;;;4978150;28;20109;-86
2023/06/20 03:53:03;;;;;;;7.13;5.75;;;;;;;;;;4972953;28;20432;-86
2023/06/20 03:55:29;;;;;;;8.68;5.80;;;;;;;;;;4963851;28;20484;-87
2023/06/20 03:57:55;;;;;;;6.18;5.30;;;;;;;;;;4966649;28;20061;-86
2023/06/20 04:00:21;;;;;;;7.63;4.80;;;;;;;;;;4968607;28;20035;-87
2023/06/20 04:02:46;;;;;;;10.68;4.95;;;;;;;;;;4971954;28;20051;-87
2023/06/20 04:05:13;;;;;;;6.32;4.93;;;;;;;;;;4991253;28;20035;-87
2023/06/20 04:07:43;;;;;;;8.25;4.60;;;;;;;;;;4977767;28;20031;-87
2023/06/20 04:10:13;;;;;;;6.65;4.55;;;;;;;;;;4970409;28;20039;-87
2023/06/20 04:12:40;;;;;;;4.95;4.05;;;;;;;;;;4983026;28;20035;-86
2023/06/20 04:15:06;;;;;;;5.47;3.90;;;;;;;;;;4982585;28;20082;-87
2023/06/20 04:17:32;;;;;;;4.78;3.85;;;;;;;;;;4980401;28;20102;-87
2023/06/20 04:19:59;;;;;;;7.20;3.63;;;;;;;;;;4978608;28;20126;-87
2023/06/20 04:22:26;;;;;;;7.95;3.50;;;;;;;;;;4975541;28;20031;-87
2023/06/20 04:24:53;;;;;;;5.80;3.55;;;;;;;;;;4988315;28;20107;-87
2023/06/20 04:27:19;;;;;;;8.20;3.20;;;;;;;;;;4985638;28;20054;-87
2023/06/20 04:29:46;;;;;;;4.78;3.20;;;;;;;;;;4980504;28;20043;-86
2023/06/20 04:32:12;;;;;;;4.45;3.60;;;;;;;;;;4983188;28;20089;-86
2023/06/20 04:34:38;;;;;;;5.25;3.33;;;;;;;;;;4969694;28;20039;-86
2023/06/20 04:37:04;;;;;;;6.75;3.30;;;;;;;;;;4978002;28;20034;-85
2023/06/20 04:39:29;;;;;;;4.57;3.10;;;;;;;;;;4998239;28;20043;-86
2023/06/20 04:41:55;;;;;;;6.78;3.20;;;;;;;;;;4974251;28;20039;-86
2023/06/20 04:44:21;;;;;;;4.35;2.90;;;;;;;;;;4987126;28;20039;-86
2023/06/20 04:46:46;;;;;;;3.83;3.20;;;;;;;;;;4986420;28;20481;-87
2023/06/20 04:49:12;;;;;;;5.88;3.28;;;;;;;;;;4988627;28;20089;-86
2023/06/20 04:51:40;;;;;;;3.97;3.17;;;;;;;;;;4985274;28;20485;-87
2023/06/20 04:54:09;;;;;;;4.32;3.10;;;;;;;;;;4995786;28;20063;-87
2023/06/20 04:56:40;;;;;;;4.57;3.22;;;;;;;;;;4980885;28;20035;-87
2023/06/20 04:59:08;;;;;;;4.18;3.30;;;;;;;;;;4979481;28;20039;-88
2023/06/20 05:01:34;;;;;;;4.28;3.05;;;;;;;;;;4988172;28;20041;-87
2023/06/20 05:04:05;;;;;;;3.38;2.80;;;;;;;;;;4986271;28;20098;-87
2023/06/20 05:06:30;;;;;;;5.25;2.65;;;;;;;;;;4988571;28;20031;-87
2023/06/20 05:08:56;;;;;;;3.47;2.40;;;;;;;;;;4988895;28;20061;-87
2023/06/20 05:11:22;;;;;;;5.20;2.70;;;;;;;;;;4981364;28;20062;-87
2023/06/20 05:13:48;;;;;;;4.05;2.28;;;;;;;;;;4978063;28;20667;-87
2023/06/20 05:16:13;;;;;;;3.70;2.53;;;;;;;;;;4976030;28;20456;-87
2023/06/20 05:18:39;;;;;;;4.55;2.40;;;;;;;;;;4984885;28;20489;-87
2023/06/20 05:21:04;;;;;;;3.55;2.47;;;;;;;;;;4974669;28;20078;-87
2023/06/20 05:23:30;;;;;;;4.05;2.40;;;;;;;;;;4971945;28;20039;-87
2023/06/20 05:25:55;;;;;;;5.35;2.60;;;;;;;;;;4974883;28;20042;-87
2023/06/20 05:28:21;;;;;;;3.10;2.38;;;;;;;;;;4979865;28;20054;-87
2023/06/20 05:30:46;;;;;;;4.25;2.35;;;;;;;;;;4979984;28;20054;-88
2023/06/20 05:33:12;;;;;;;2.80;2.30;;;;;;;;;;4996746;28;20109;-88
2023/06/20 05:35:37;;;;;;;2.83;2.40;;;;;;;;;;4969007;28;20031;-87
2023/06/20 05:38:03;;;;;;;4.22;2.55;;;;;;;;;;4970129;28;20452;-87
2023/06/20 05:40:29;;;;;;;4.28;2.15;;;;;;;;;;4984332;28;20046;-87
2023/06/20 05:42:55;;;;;;;3.05;2.10;;;;;;;;;;4976852;28;20039;-87
2023/06/20 05:45:21;;;;;;;3.97;2.40;;;;;;;;;;4976046;28;20035;-85
2023/06/20 05:47:46;;;;;;;4.18;2.20;;;;;;;;;;4968628;28;20073;-86
2023/06/20 05:50:12;;;;;;;5.03;2.33;;;;;;;;;;4971602;28;20035;-87
2023/06/20 05:52:37;;;;;;;5.30;3.50;;;;;;;;;;4984090;28;20053;-87
2023/06/20 05:55:04;;;;;;;5.72;4.25;;;;;;;;;;4971167;28;20126;-87
2023/06/20 05:57:29;;;;;;;5.88;4.10;;;;;;;;;;4973988;28;20054;-87
2023/06/20 05:59:55;;;;;;;9.15;4.40;;;;;;;;;;4976045;28;20413;-87
2023/06/20 06:02:23;;;;;;;6.93;4.63;;;;;;;;;;4980185;28;20039;-87
2023/06/20 06:04:49;;;;;;;5.88;4.68;;;;;;;;;;4982381;28;20039;-87
2023/06/20 06:07:14;;;;;;;7.70;4.50;;;;;;;;;;4982413;28;20106;-88
2023/06/20 06:09:41;;;;;;;7.22;4.78;;;;;;;;;;4971210;28;20045;-88
2023/06/20 06:12:07;;;;;;;6.82;5.00;;;;;;;;;;4983621;28;20035;-88
2023/06/20 06:14:32;;;;;;;6.10;4.53;;;;;;;;;;4974460;28;20031;-88
2023/06/20 06:16:58;;;;;;;6.72;4.82;;;;;;;;;;4977676;28;20050;-88
2023/06/20 06:19:24;;;;;;;5.35;4.63;;;;;;;;;;4979793;28;20031;-87
2023/06/20 06:21:50;;;;;;;8.98;4.70;;;;;;;;;;4972796;28;20058;-87
2023/06/20 06:24:15;;;;;;;6.20;4.25;;;;;;;;;;4971184;28;20492;-88
2023/06/20 06:26:41;;;;;;;7.20;4.68;;;;;;;;;;4969218;28;20066;-88
2023/06/20 06:29:06;;;;;;;6.03;4.85;;;;;;;;;;4968522;28;20030;-88
2023/06/20 06:31:34;;;;;;;5.88;4.70;;;;;;;;;;4973465;28;20056;-87
2023/06/20 06:34:01;;;;;;;10.55;5.20;;;;;;;;;;4977007;28;20129;-87
2023/06/20 06:36:30;;;;;;;7.38;5.13;;;;;;;;;;4990268;28;20081;-87
2023/06/20 06:38:55;;;;;;;5.00;4.43;;;;;;;;;;4970581;28;20086;-88
2023/06/20 06:41:21;;;;;;;4.78;4.28;;;;;;;;;;4965941;28;20417;-86
2023/06/20 06:43:47;;;;;;;6.78;4.47;;;;;;;;;;4965951;28;20046;-85
2023/06/20 06:46:14;;;;;;;5.63;4.43;;;;;;;;;;4960771;28;20039;-85
2023/06/20 06:48:40;;;;;;;6.95;4.10;;;;;;;;;;4964172;28;20073;-85
2023/06/20 06:51:06;;;;;;;6.03;3.78;;;;;;;;;;4970143;28;20059;-85
2023/06/20 06:53:32;;;;;;;8.68;4.53;;;;;;;;;;4975358;28;20110;-83
2023/06/20 06:55:57;;;;;;;4.47;4.07;;;;;;;;;;4985348;28;20166;-84
2023/06/20 06:58:23;;;;;;;5.30;4.28;;;;;;;;;;4971426;28;20027;-83
2023/06/20 07:00:48;;;;;;;6.32;4.28;;;;;;;;;;4962601;28;20489;-82
2023/06/20 07:03:15;;;;;;;5.45;4.15;;;;;;;;;;4964897;28;20042;-83
2023/06/20 07:05:40;;;;;;;4.75;4.20;;;;;;;;;;4967533;28;20094;-83
2023/06/20 07:08:06;;;;;;;4.30;3.60;;;;;;;;;;4967976;28;20038;-86
2023/06/20 07:10:31;;;;;;;5.47;3.67;;;;;;;;;;4968869;28;20034;-86
2023/06/20 07:12:57;;;;;;;5.10;3.30;;;;;;;;;;4978478;28;20412;-84
2023/06/20 07:15:22;;;;;;;5.03;3.60;;;;;;;;;;4945057;28;20042;-84
2023/06/20 07:17:48;;;;;;;4.22;3.83;;;;;;;;;;4971746;28;20110;-85
2023/06/20 07:20:13;;;;;;;5.40;3.30;;;;;;;;;;4975031;28;20480;-85
2023/06/20 07:22:39;;;;;;;5.40;3.10;;;;;;;;;;4967834;28;20031;-85
2023/06/20 07:25:07;;;;;;;4.95;3.17;;;;;;;;;;4985167;28;20031;-85
2023/06/20 07:27:33;;;;;;;4.47;3.33;;;;;;;;;;4971530;28;20038;-87
2023/06/20 07:29:58;;;;;;;3.80;3.40;;;;;;;;;;4974574;28;20421;-84
2023/06/20 07:32:24;;;;;;;4.35;3.30;;;;;;;;;;4964699;28;20041;-84
2023/06/20 07:34:49;;;;;;;5.00;3.20;;;;;;;;;;4962702;28;20038;-84
2023/06/20 07:37:15;;;;;;;6.20;3.00;;;;;;;;;;4967685;28;20505;-85
2023/06/20 07:39:42;;;;;;;4.00;2.72;;;;;;;;;;4968584;28;20046;-84
2023/06/20 07:42:09;;;;;;;5.45;2.70;;;;;;;;;;4980504;28;20050;-84
2023/06/20 07:44:34;;;;;;;4.68;2.58;;;;;;;;;;4961424;28;20019;-82
2023/06/20 07:47:00;;;;;;;2.03;1.70;;;;;;;;;;4968841;28;20164;-83
2023/06/20 07:49:25;;;;;;;2.72;2.33;;;;;;;;;;4972897;28;20066;-84
2023/06/20 07:51:51;;;;;;;2.80;1.92;;;;;;;;;;4965944;28;20030;-84
2023/06/20 07:54:16;;;;;;;3.00;1.80;;;;;;;;;;4966547;28;20043;-85
2023/06/20 07:56:41;;;;;;;2.80;2.10;;;;;;;;;;4965929;28;20027;-85
2023/06/20 07:59:07;;;;;;;6.80;2.20;;;;;;;;;;4969887;28;20055;-85
2023/06/20 08:01:32;;;;;;;2.92;2.28;;;;;;;;;;4969301;28;20043;-85
2023/06/20 08:03:58;;;;;;;2.30;1.90;;;;;;;;;;4971139;28;20039;-84
2023/06/20 08:06:23;;;;;;;5.63;2.38;;;;;;;;;;4972373;28;20105;-84
2023/06/20 08:08:49;;;;;;;2.28;1.77;;;;;;;;;;4963168;28;20047;-85
2023/06/20 08:11:20;;;;;;;3.78;2.10;;;;;;;;;;4963525;28;20042;-85
2023/06/20 08:13:45;;;;;;;2.10;1.85;;;;;;;;;;4964155;28;20035;-84
2023/06/20 08:16:10;;;;;;;3.78;1.60;;;;;;;;;;4961238;28;20453;-84
2023/06/20 08:18:36;;;;;;;1.90;1.52;;;;;;;;;;4959036;28;20572;-85
2023/06/20 08:21:01;;;;;;;3.17;1.70;;;;;;;;;;4969557;28;20031;-87
2023/06/20 08:23:27;;;;;;;2.55;1.83;;;;;;;;;;4961054;28;20039;-87
2023/06/20 08:25:54;;;;;;;7.10;2.20;;;;;;;;;;4965268;28;20065;-88
2023/06/20 08:28:21;;;;;;;3.63;2.40;;;;;;;;;;4975092;28;20098;-87
2023/06/20 08:30:46;;;;;;;2.70;2.20;;;;;;;;;;4972242;28;20035;-87
2023/06/20 08:33:11;;;;;;;3.95;2.35;;;;;;;;;;4970776;28;20051;-87
2023/06/20 08:35:37;;;;;;;3.22;2.20;;;;;;;;;;4979613;28;20039;-87
2023/06/20 08:38:02;;;;;;;2.97;1.80;;;;;;;;;;4980040;28;20061;-87
2023/06/20 08:40:30;;;;;;;2.45;1.90;;;;;;;;;;4977607;28;20066;-88
2023/06/20 08:42:56;;;;;;;2.53;2.10;;;;;;;;;;4976132;28;20138;-87
2023/06/20 08:45:21;;;;;;;2.40;2.00;;;;;;;;;;4973494;28;20505;-88
2023/06/20 08:47:47;;;;;;;4.30;2.40;;;;;;;;;;4973385;28;20051;-87
2023/06/20 08:50:12;;;;;;;2.58;2.30;;;;;;;;;;4969382;28;20046;-87
2023/06/20 08:52:47;;;;;;;6.20;2.63;;;;;;;;;;4966932;28;20098;-87
2023/06/20 08:55:14;;;;;;;3.72;2.20;;;;;;;;;;4967684;28;20023;-88
2023/06/20 08:57:40;;;;;;;3.70;2.80;;;;;;;;;;4969416;28;20078;-88
2023/06/20 09:00:08;;;;;;;3.97;2.58;;;;;;;;;;4971408;28;20512;-87
2023/06/20 09:02:34;;;;;;;3.92;2.50;;;;;;;;;;4973324;28;20039;-88
2023/06/20 09:05:01;;;;;;;5.65;2.67;;;;;;;;;;4970794;28;20022;-88
2023/06/20 09:07:34;;;;;;;2.38;2.15;;;;;;;;;;4967661;28;20067;-87
2023/06/20 09:10:00;;;;;;;3.67;2.50;;;;;;;;;;4964577;28;20567;-87
2023/06/20 09:12:26;;;;;;;2.83;2.30;;;;;;;;;;4962399;28;20087;-86
2023/06/20 09:14:52;;;;;;;4.70;2.63;;;;;;;;;;4968092;28;20520;-87
2023/06/20 09:17:19;;;;;;;3.35;2.45;;;;;;;;;;4973325;28;20244;-87
2023/06/20 09:19:46;;;;;;;4.22;2.80;;;;;;;;;;4955218;28;20055;-87
2023/06/20 09:22:12;;;;;;;3.30;2.60;;;;;;;;;;4968918;28;20142;-87
2023/06/20 09:24:42;;;;;;;5.03;3.03;;;;;;;;;;4969743;28;20039;-87
2023/06/20 09:27:08;;;;;;;5.07;2.60;;;;;;;;;;4967735;28;20050;-87
2023/06/20 09:29:33;;;;;;;4.70;2.55;;;;;;;;;;4969990;28;20066;-87
2023/06/20 09:31:59;;;;;;;3.70;2.30;;;;;;;;;;4973329;28;20046;-87
2023/06/20 09:34:24;;;;;;;2.88;2.10;;;;;;;;;;4976252;28;20047;-87
2023/06/20 09:36:50;;;;;;;3.28;2.20;;;;;;;;;;4979190;28;20049;-87
2023/06/20 09:39:20;;;;;;;5.63;2.20;;;;;;;;;;4982138;28;20098;-87
2023/06/20 09:41:52;;;;;;;3.53;2.20;;;;;;;;;;4994711;28;20106;-87
2023/06/20 09:44:19;;;;;;;8.32;2.50;;;;;;;;;;4978068;28;20038;-86
2023/06/20 09:46:45;;;;;;;7.32;2.55;;;;;;;;;;4966540;28;20043;-83
2023/06/20 09:49:12;;;;;;;3.50;2.17;;;;;;;;;;4966619;28;20104;-86
2023/06/20 09:51:54;;;;;;;4.82;2.42;;;;;;;;;;4968074;28;20393;-84
2023/06/20 09:54:33;;;;;;;3.85;2.30;;;;;;;;;;4969978;28;20030;-85
2023/06/20 09:57:04;;;;;;;4.55;2.33;;;;;;;;;;4960711;28;20174;-84
2023/06/20 09:59:31;;;;;;;3.60;2.40;;;;;;;;;;4958848;28;20097;-84
2023/06/20 10:01:59;;;;;;;3.30;2.33;;;;;;;;;;4961178;28;20042;-85
2023/06/20 10:04:26;;;;;;;2.95;2.50;;;;;;;;;;4964396;28;20101;-84
2023/06/20 10:06:55;;;;;;;3.42;2.40;;;;;;;;;;4967724;28;20074;-84
2023/06/20 10:09:20;;;;;;;3.90;2.45;;;;;;;;;;4980498;28;20039;-83
2023/06/20 10:11:46;;;;;;;3.55;2.50;;;;;;;;;;4961834;28;20130;-84
2023/06/20 10:14:13;;;;;;;2.58;2.25;;;;;;;;;;4973780;28;20497;-84
2023/06/20 10:16:38;;;;;;;3.13;2.40;;;;;;;;;;4959024;28;20406;-84
2023/06/20 10:19:17;;;;;;;5.40;2.20;;;;;;;;;;4960309;28;20035;-84
2023/06/20 10:21:54;;;;;;;2.80;2.30;;;;;;;;;;4964104;28;20078;-85
2023/06/20 10:24:20;;;;;;;4.78;2.30;;;;;;;;;;4966832;28;20369;-85
2023/06/20 10:26:52;;;;;;;2.97;2.30;;;;;;;;;;4964256;28;20059;-85
2023/06/20 10:29:18;;;;;;;4.93;2.53;;;;;;;;;;4961145;28;20078;-82
2023/06/20 10:32:05;;;;;;;3.38;2.20;;;;;;;;;;4958482;28;20033;-85
2023/06/20 10:34:40;;;;;;;3.88;2.40;;;;;;;;;;4959680;28;20480;-84
2023/06/20 10:37:27;;;;;;;4.35;2.50;;;;;;;;;;4978142;28;20046;-85
2023/06/20 10:39:57;;;;;;;4.40;2.13;;;;;;;;;;4965882;28;20039;-84
2023/06/20 10:42:36;;;;;;;7.07;2.20;;;;;;;;;;4969749;28;20031;-82
2023/06/20 10:45:20;;;;;;;4.03;2.20;;;;;;;;;;4972856;28;20046;-85
2023/06/20 10:47:47;;;;;;;4.50;2.40;;;;;;;;;;4970969;28;20057;-84
2023/06/20 10:50:13;;;;;;;3.65;2.38;;;;;;;;;;4972578;28;20014;-83
2023/06/20 10:52:42;;;;;;;3.78;2.35;;;;;;;;;;4968075;28;20039;-83
2023/06/20 10:55:14;;;;;;;2.83;2.20;;;;;;;;;;4965104;28;20047;-84
2023/06/20 10:57:44;;;;;;;2.92;2.20;;;;;;;;;;4961706;28;20023;-85
2023/06/20 11:00:13;;;;;;;2.90;2.10;;;;;;;;;;4972398;28;20034;-85
2023/06/20 11:02:40;;;;;;;5.13;2.20;;;;;;;;;;4956401;28;20074;-83
2023/06/20 11:05:07;;;;;;;2.55;1.90;;;;;;;;;;4971758;28;20050;-84
2023/06/20 11:07:32;;;;;;;3.40;1.85;;;;;;;;;;4964300;28;20042;-84
2023/06/20 11:09:58;;;;;;;4.68;2.10;;;;;;;;;;4967262;28;20034;-83
2023/06/20 11:12:23;;;;;;;3.22;2.30;;;;;;;;;;4972682;28;20027;-84
2023/06/20 11:14:49;;;;;;;2.38;1.98;;;;;;;;;;4969371;28;20038;-83
2023/06/20 11:17:14;;;;;;;4.13;2.10;;;;;;;;;;4968308;28;20043;-85
2023/06/20 11:19:40;;;;;;;4.68;2.00;;;;;;;;;;4981242;28;20122;-84
2023/06/20 11:22:09;;;;;;;3.95;2.03;;;;;;;;;;4961622;28;20042;-84
2023/06/20 11:24:36;;;;;;;3.03;1.80;;;;;;;;;;4974153;28;20032;-85
2023/06/20 11:27:14;;;;;;;4.65;1.83;;;;;;;;;;4971186;28;20090;-84
2023/06/20 11:29:40;;;;;;;3.17;1.92;;;;;;;;;;4960211;28;20085;-84
2023/06/20 11:32:10;;;;;;;2.58;1.80;;;;;;;;;;4964438;28;20027;-84
2023/06/20 11:34:59;;;;;;;2.63;2.00;;;;;;;;;;4968308;28;20034;-84
2023/06/20 11:37:25;;;;;;;5.13;2.10;;;;;;;;;;4967865;28;20038;-83
2023/06/20 11:39:52;;;;;;;2.60;1.90;;;;;;;;;;4967548;28;20023;-83
2023/06/20 11:42:18;;;;;;;2.67;1.90;;;;;;;;;;4962645;28;20034;-84
2023/06/20 11:44:44;;;;;;;4.70;2.00;;;;;;;;;;4972049;28;20035;-85
2023/06/20 11:47:10;;;;;;;2.78;2.03;;;;;;;;;;4967495;28;20038;-84
2023/06/20 11:49:42;;;;;;;3.70;1.98;;;;;;;;;;4971374;28;20089;-83
2023/06/20 11:52:08;;;;;;;3.75;2.53;;;;;;;;;;4969781;28;20504;-83
2023/06/20 11:54:51;;;;;;;3.72;2.35;;;;;;;;;;4971078;28;20045;-84
2023/06/20 11:57:27;;;;;;;2.90;2.20;;;;;;;;;;4966250;28;20045;-83
2023/06/20 11:59:58;;;;;;;3.38;2.15;;;;;;;;;;4982671;28;20077;-83
2023/06/20 12:02:26;;;;;;;3.70;2.40;;;;;;;;;;4971940;28;20050;-84
2023/06/20 12:04:59;;;;;;;3.85;2.38;;;;;;;;;;4969680;28;20153;-83
2023/06/20 12:07:25;;;;;;;2.70;2.30;;;;;;;;;;4969086;28;20051;-84
2023/06/20 12:09:51;;;;;;;2.60;2.05;;;;;;;;;;4966362;28;20035;-84
2023/06/20 12:12:16;;;;;;;7.13;2.30;;;;;;;;;;4963222;28;20043;-84
2023/06/20 12:14:43;;;;;;;4.43;2.40;;;;;;;;;;4958878;28;20038;-85
2023/06/20 12:17:09;;;;;;;3.15;2.10;;;;;;;;;;4956718;28;20484;-84
2023/06/20 12:19:34;;;;;;;5.55;2.30;;;;;;;;;;4958599;28;20038;-84
2023/06/20 12:22:00;;;;;;;3.53;2.25;;;;;;;;;;4962517;28;20042;-84
2023/06/20 12:24:27;;;;;;;3.85;2.25;;;;;;;;;;4965950;28;20034;-84
2023/06/20 12:26:56;;;;;;;3.60;2.25;;;;;;;;;;4968743;28;20037;-83
2023/06/20 12:29:21;;;;;;;2.90;2.10;;;;;;;;;;4969660;28;20019;-83
2023/06/20 12:31:47;;;;;;;5.22;2.30;;;;;;;;;;4986471;28;20118;-85
2023/06/20 12:34:12;;;;;;;4.47;2.30;;;;;;;;;;4982767;28;20087;-84
2023/06/20 12:36:38;;;;;;;3.28;2.13;;;;;;;;;;4964742;28;20023;-84
2023/06/20 12:39:04;;;;;;;5.68;2.40;;;;;;;;;;4960542;28;20417;-85
2023/06/20 12:41:33;;;;;;;3.47;2.63;;;;;;;;;;4960527;28;20031;-82
2023/06/20 12:43:59;;;;;;;5.07;2.42;;;;;;;;;;4976391;28;20040;-83
2023/06/20 12:46:25;;;;;;;4.30;2.35;;;;;;;;;;4962062;28;20026;-84
2023/06/20 12:48:50;;;;;;;4.95;2.70;;;;;;;;;;4963679;28;20068;-85
2023/06/20 12:51:17;;;;;;;3.60;2.42;;;;;;;;;;4961053;28;20034;-84
2023/06/20 12:53:43;;;;;;;3.60;2.60;;;;;;;;;;4956745;28;20069;-86
2023/06/20 12:56:09;;;;;;;4.45;2.38;;;;;;;;;;4955665;28;20034;-82
2023/06/20 12:58:34;;;;;;;3.55;2.70;;;;;;;;;;4962945;28;20121;-83
2023/06/20 13:01:00;;;;;;;6.40;2.85;;;;;;;;;;4975181;28;20122;-84
2023/06/20 13:03:26;;;;;;;9.52;2.80;;;;;;;;;;4972182;28;20039;-84
2023/06/20 13:05:52;;;;;;;3.25;2.75;;;;;;;;;;4964818;28;20031;-84
2023/06/20 13:08:18;;;;;;;3.80;2.70;;;;;;;;;;4988540;28;20038;-85
2023/06/20 13:10:44;;;;;;;3.80;2.65;;;;;;;;;;4962493;28;20082;-84
2023/06/20 13:13:10;;;;;;;8.60;2.85;;;;;;;;;;4965556;28;20452;-84
2023/06/20 13:15:36;;;;;;;3.83;2.80;;;;;;;;;;4969894;28;20065;-85
2023/06/20 13:18:04;;;;;;;7.25;2.92;;;;;;;;;;4981690;28;20039;-84
2023/06/20 13:20:30;;;;;;;4.00;3.08;;;;;;;;;;4963269;28;20039;-85
2023/06/20 13:22:56;;;;;;;6.00;3.20;;;;;;;;;;4960573;28;20039;-85
2023/06/20 13:25:22;;;;;;;6.57;3.15;;;;;;;;;;4975933;28;20049;-83
2023/06/20 13:27:49;;;;;;;3.72;3.03;;;;;;;;;;4962284;28;20065;-86
2023/06/20 13:30:15;;;;;;;5.72;3.20;;;;;;;;;;4966352;28;20134;-86
2023/06/20 13:32:42;;;;;;;5.93;3.35;;;;;;;;;;4967094;28;20077;-85
2023/06/20 13:35:08;;;;;;;4.63;3.30;;;;;;;;;;4974217;28;20042;-85
2023/06/20 13:37:33;;;;;;;5.30;3.33;;;;;;;;;;4967998;28;20094;-85
2023/06/20 13:40:02;;;;;;;4.07;3.28;;;;;;;;;;4963662;28;20043;-84
2023/06/20 13:42:28;;;;;;;4.00;2.97;;;;;;;;;;4963439;28;20039;-85
2023/06/20 13:44:53;;;;;;;5.63;3.35;;;;;;;;;;4965212;28;20039;-87
2023/06/20 13:47:19;;;;;;;5.07;3.35;;;;;;;;;;4968293;28;20053;-88
2023/06/20 13:49:44;;;;;;;5.72;3.53;;;;;;;;;;4971881;28;20513;-88
2023/06/20 13:52:10;;;;;;;5.38;3.10;;;;;;;;;;4967306;28;20066;-87
2023/06/20 13:54:35;;;;;;;5.60;3.40;;;;;;;;;;4970882;28;20043;-89
2023/06/20 13:57:01;;;;;;;4.20;3.17;;;;;;;;;;4980918;28;20122;-87
2023/06/20 13:59:27;;;;;;;7.22;3.88;;;;;;;;;;4961289;28;20039;-88
2023/06/20 14:01:52;;;;;;;4.75;3.40;;;;;;;;;;4964091;28;20467;-88
2023/06/20 14:04:18;;;;;;;6.43;3.20;;;;;;;;;;4975363;28;20089;-88
2023/06/20 14:06:43;;;;;;;4.68;3.38;;;;;;;;;;4971791;28;20043;-88
2023/06/20 14:09:09;;;;;;;4.28;3.33;;;;;;;;;;4972162;28;20047;-88
2023/06/20 14:11:34;;;;;;;6.07;3.28;;;;;;;;;;4962015;28;20047;-88
2023/06/20 14:14:00;;;;;;;6.07;3.10;;;;;;;;;;4958630;28;20121;-87
2023/06/20 14:16:26;;;;;;;4.47;3.33;;;;;;;;;;4960377;28;20402;-88
2023/06/20 14:18:52;;;;;;;6.90;3.60;;;;;;;;;;4964385;28;20129;-85
2023/06/20 14:21:20;;;;;;;4.47;3.65;;;;;;;;;;4970148;28;20071;-86
2023/06/20 14:23:46;;;;;;;6.88;3.15;;;;;;;;;;4973027;28;20090;-86
2023/06/20 14:26:11;;;;;;;7.32;3.55;;;;;;;;;;4973101;28;20043;-87
2023/06/20 14:28:37;;;;;;;4.20;3.30;;;;;;;;;;4976202;28;20419;-87
2023/06/20 14:31:03;;;;;;;4.30;3.17;;;;;;;;;;4967989;28;20027;-86
2023/06/20 14:33:28;;;;;;;4.88;3.50;;;;;;;;;;4962654;28;20134;-86
2023/06/20 14:35:54;;;;;;;8.30;3.42;;;;;;;;;;4964226;28;20050;-85
2023/06/20 14:38:19;;;;;;;8.73;3.25;;;;;;;;;;4971950;28;20046;-86
2023/06/20 14:40:45;;;;;;;5.68;3.67;;;;;;;;;;4972077;28;20121;-86
2023/06/20 14:43:10;;;;;;;6.80;3.88;;;;;;;;;;4967417;28;20054;-85
2023/06/20 14:45:36;;;;;;;5.43;3.30;;;;;;;;;;4974326;28;20039;-86